Time;durP1;ratioP1;P1;durP2;ratioP2;P2;SDS_P1;SDS_P2;PMS_P1;PMS_P2;Temp;Humidity;BMP_temperature;BMP_pressure;BME280_temperature;BME280_humidity;BME280_pressure;Samples;Min_cycle;Max_cycle;Signal;HPM_P1;HPM_P2
2024/04/20 00:00:03;;;;;;;;;;;;;;;16.77;47.72;100162.78;5315926;27;1187;-45
2024/04/20 00:02:29;;;;;;;;;;;;;;;16.66;48.06;100147.75;5283975;27;1260;-44
2024/04/20 00:04:55;;;;;;;;;;;;;;;15.93;48.55;100135.03;5311089;27;1062;-45
2024/04/20 00:07:20;;;;;;;;;;;;;;;17.28;47.89;100130.28;5284162;27;1204;-47
2024/04/20 00:09:46;;;;;;;;;;;;;;;16.14;48.79;100127.16;5281338;27;1130;-43
2024/04/20 00:12:11;;;;;;;;;;;;;;;15.86;48.23;100121.41;5304000;27;1169;-44
2024/04/20 00:14:37;;;;;;;;;;;;;;;15.69;47.54;100114.78;5301424;27;1863;-45
2024/04/20 00:17:02;;;;;;;;;;;;;;;15.64;46.80;100113.38;5305911;27;1272;-47
2024/04/20 00:19:28;;;;;;;;;;;;;;;15.44;46.35;100096.38;5301171;27;1307;-46
2024/04/20 00:21:53;;;;;;;;;;;;;;;16.06;47.58;100092.47;5292658;27;1182;-45
2024/04/20 00:24:19;;;;;;;;;;;;;;;15.61;47.51;100081.78;5295557;27;1245;-44
2024/04/20 00:26:44;;;;;;;;;;;;;;;15.47;46.81;100082.88;5281711;27;1192;-43
2024/04/20 00:29:11;;;;;;;;;;;;;;;15.40;46.03;100079.88;5311408;27;1175;-46
2024/04/20 00:31:36;;;;;;;;;;;;;;;16.84;47.58;100078.09;5315241;27;1133;-45
2024/04/20 00:34:02;;;;;;;;;;;;;;;15.91;47.82;100079.44;5296165;27;1834;-48
2024/04/20 00:36:27;;;;;;;;;;;;;;;15.66;47.32;100078.78;5281256;27;1161;-46
2024/04/20 00:38:55;;;;;;;;;;;;;;;15.85;47.92;100066.69;5282680;27;1268;-48
2024/04/20 00:41:21;;;;;;;;;;;;;;;15.94;47.92;100068.59;5312579;27;1105;-48
2024/04/20 00:43:47;;;;;;;;;;;;;;;15.66;47.47;100065.50;5313808;27;1172;-44
2024/04/20 00:46:12;;;;;;;;;;;;;;;16.40;48.33;100061.31;5318204;27;1203;-42
2024/04/20 00:48:38;;;;;;;;;;;;;;;15.98;48.06;100066.53;5300241;27;1253;-45
2024/04/20 00:51:03;;;;;;;;;;;;;;;15.74;47.30;100068.38;5313029;27;1122;-47
2024/04/20 00:53:29;;;;;;;;;;;;;;;16.48;48.14;100063.31;5303274;27;1872;-44
2024/04/20 00:55:55;;;;;;;;;;;;;;;15.88;48.16;100064.59;5289015;27;1323;-46
2024/04/20 00:58:20;;;;;;;;;;;;;;;15.64;47.22;100065.63;5302052;27;1153;-48
2024/04/20 01:00:46;;;;;;;;;;;;;;;15.53;46.86;100074.44;5294053;27;1331;-43
2024/04/20 01:03:12;;;;;;;;;;;;;;;16.89;47.12;100081.22;5271062;27;1363;-46
2024/04/20 01:05:37;;;;;;;;;;;;;;;15.87;48.04;100070.03;5286740;27;1092;-47
2024/04/20 01:08:04;;;;;;;;;;;;;;;15.58;47.40;100071.41;5300467;27;1351;-46
2024/04/20 01:10:29;;;;;;;;;;;;;;;15.50;47.06;100069.38;5306343;27;1181;-46
2024/04/20 01:13:04;;;;;;;;;;;;;;;15.38;46.54;100073.00;5271900;27;1830;-44
2024/04/20 01:15:30;;;;;;;;;;;;;;;15.26;45.96;100065.06;5293071;27;1225;-45
2024/04/20 01:17:56;;;;;;;;;;;;;;;16.25;47.15;100075.84;5303866;27;1177;-43
2024/04/20 01:20:21;;;;;;;;;;;;;;;15.59;47.26;100074.91;5294707;27;1199;-46
2024/04/20 01:22:47;;;;;;;;;;;;;;;15.35;46.66;100065.31;5298217;27;1365;-42
2024/04/20 01:25:12;;;;;;;;;;;;;;;15.98;47.32;100062.06;5262027;27;1308;-45
2024/04/20 01:27:38;;;;;;;;;;;;;;;15.86;47.61;100058.59;5297874;27;1129;-44
2024/04/20 01:30:08;;;;;;;;;;;;;;;15.52;46.98;100059.50;5254416;27;1278;-44
2024/04/20 01:32:37;;;;;;;;;;;;;;;15.35;46.53;100055.53;5274505;27;1286;-47
2024/04/20 01:35:02;;;;;;;;;;;;;;;16.70;46.61;100045.59;5317568;27;1831;-45
2024/04/20 01:37:28;;;;;;;;;;;;;;;15.69;47.83;100044.06;5317784;27;1225;-45
2024/04/20 01:39:53;;;;;;;;;;;;;;;15.51;47.23;100041.06;5311764;27;1168;-43
2024/04/20 01:42:19;;;;;;;;;;;;;;;15.83;47.57;100042.09;5316865;27;1124;-42
2024/04/20 01:44:45;;;;;;;;;;;;;;;16.29;47.55;100029.53;5317002;27;1292;-46
2024/04/20 01:47:10;;;;;;;;;;;;;;;15.72;47.57;100029.69;5297476;27;1264;-45
2024/04/20 01:49:36;;;;;;;;;;;;;;;15.50;46.89;100036.72;5283672;27;1185;-46
2024/04/20 01:52:01;;;;;;;;;;;;;;;16.72;47.36;100016.25;5297789;27;1181;-48
2024/04/20 01:54:27;;;;;;;;;;;;;;;16.03;48.18;100012.13;5305787;27;1830;-44
2024/04/20 01:56:52;;;;;;;;;;;;;;;15.67;47.76;100014.16;5283629;27;1148;-47
2024/04/20 01:59:17;;;;;;;;;;;;;;;16.61;47.67;100001.25;5283322;27;1267;-46
2024/04/20 02:01:46;;;;;;;;;;;;;;;15.75;48.13;100006.41;5282875;27;1269;-46
2024/04/20 02:04:11;;;;;;;;;;;;;;;15.61;47.64;100006.72;5289466;27;1299;-45
2024/04/20 02:06:37;;;;;;;;;;;;;;;17.17;47.69;99993.81;5317360;27;1276;-44
2024/04/20 02:09:02;;;;;;;;;;;;;;;16.07;48.27;99991.50;5309129;27;1224;-47
2024/04/20 02:11:28;;;;;;;;;;;;;;;15.77;47.54;99983.28;5302482;27;1193;-48
2024/04/20 02:13:53;;;;;;;;;;;;;;;15.88;47.87;99977.06;5286595;27;1887;-46
2024/04/20 02:16:19;;;;;;;;;;;;;;;16.45;47.96;99967.19;5294531;27;1264;-45
2024/04/20 02:18:44;;;;;;;;;;;;;;;15.83;47.91;99966.00;5290489;27;1342;-44
2024/04/20 02:21:11;;;;;;;;;;;;;;;15.66;47.12;99956.81;5316793;27;1169;-46
2024/04/20 02:23:41;;;;;;;;;;;;;;;15.47;46.60;99965.41;5308889;27;1265;-46
2024/04/20 02:26:06;;;;;;;;;;;;;;;16.55;47.68;99975.22;5303176;27;1269;-43
2024/04/20 02:28:32;;;;;;;;;;;;;;;15.87;47.76;99969.25;5316488;27;1409;-45
2024/04/20 02:30:57;;;;;;;;;;;;;;;15.60;47.10;99963.44;5317015;27;1196;-46
2024/04/20 02:33:23;;;;;;;;;;;;;;;17.08;47.37;99952.09;5294144;27;1850;-45
2024/04/20 02:35:48;;;;;;;;;;;;;;;16.02;47.94;99949.44;5296879;27;1287;-47
2024/04/20 02:38:14;;;;;;;;;;;;;;;15.71;47.29;99946.66;5282580;27;1367;-43
2024/04/20 02:40:39;;;;;;;;;;;;;;;15.52;47.02;99953.47;5293513;27;1180;-45
2024/04/20 02:43:05;;;;;;;;;;;;;;;16.60;47.56;99954.41;5282911;27;1306;-47
2024/04/20 02:45:31;;;;;;;;;;;;;;;15.77;47.98;99953.25;5283286;27;1271;-44
2024/04/20 02:47:56;;;;;;;;;;;;;;;15.66;47.24;99954.97;5305696;27;1406;-48
2024/04/20 02:50:22;;;;;;;;;;;;;;;15.48;46.60;99951.19;5283135;27;1172;-45
2024/04/20 02:52:47;;;;;;;;;;;;;;;16.34;47.03;99953.00;5291634;27;1311;-44
2024/04/20 02:55:13;;;;;;;;;;;;;;;15.76;47.39;99954.25;5297032;27;1839;-46
2024/04/20 02:57:38;;;;;;;;;;;;;;;15.53;46.90;99963.09;5282900;27;1153;-47
2024/04/20 03:00:04;;;;;;;;;;;;;;;16.37;47.32;99951.91;5282516;27;1268;-48
2024/04/20 03:02:30;;;;;;;;;;;;;;;15.84;47.45;99951.78;5304953;27;1311;-46
2024/04/20 03:04:55;;;;;;;;;;;;;;;15.62;46.79;99952.72;5291156;27;1129;-45
2024/04/20 03:07:24;;;;;;;;;;;;;;;15.74;47.75;99964.13;5289248;27;1283;-48
2024/04/20 03:09:49;;;;;;;;;;;;;;;16.15;47.50;99956.38;5296919;27;1181;-43
2024/04/20 03:12:16;;;;;;;;;;;;;;;16.05;48.22;99961.59;5292115;27;1425;-48
2024/04/20 03:14:42;;;;;;;;;;;;;;;17.83;46.42;99970.28;5315810;27;1855;-45
2024/04/20 03:17:07;;;;;;;;;;;;;;;16.36;48.08;99963.50;5304348;27;1302;-49
2024/04/20 03:19:33;;;;;;;;;;;;;;;15.89;48.15;99949.59;5282630;27;1197;-44
2024/04/20 03:21:58;;;;;;;;;;;;;;;15.75;47.42;99948.09;5312918;27;1345;-46
2024/04/20 03:24:24;;;;;;;;;;;;;;;15.62;46.52;99940.31;5296731;27;1213;-52
2024/04/20 03:26:49;;;;;;;;;;;;;;;16.54;47.34;99942.50;5315723;27;1347;-48
2024/04/20 03:29:15;;;;;;;;;;;;;;;15.84;47.66;99953.59;5303678;27;1275;-51
2024/04/20 03:31:40;;;;;;;;;;;;;;;15.67;46.86;99958.47;5307968;27;1223;-50
2024/04/20 03:34:06;;;;;;;;;;;;;;;16.11;47.94;99957.59;5293892;27;1835;-47
2024/04/20 03:36:31;;;;;;;;;;;;;;;15.91;47.56;99957.44;5304256;27;1291;-47
2024/04/20 03:38:57;;;;;;;;;;;;;;;15.83;48.42;99947.44;5286174;27;1279;-49
2024/04/20 03:41:22;;;;;;;;;;;;;;;17.28;47.08;99952.16;5293480;27;1279;-51
2024/04/20 03:43:48;;;;;;;;;;;;;;;16.08;48.37;99948.06;5297133;27;1303;-51
2024/04/20 03:46:13;;;;;;;;;;;;;;;15.81;47.73;99940.59;5304521;27;1196;-50
2024/04/20 03:48:39;;;;;;;;;;;;;;;16.35;48.47;99937.94;5282101;27;1188;-50
2024/04/20 03:51:04;;;;;;;;;;;;;;;16.27;47.99;99933.25;5291527;27;1229;-50
2024/04/20 03:53:30;;;;;;;;;;;;;;;15.84;47.62;99940.34;5307771;27;1822;-54
2024/04/20 03:55:55;;;;;;;;;;;;;;;15.65;47.07;99945.34;5284832;27;1177;-53
2024/04/20 03:58:21;;;;;;;;;;;;;;;15.61;46.27;99945.72;5315665;27;1283;-50
2024/04/20 04:00:46;;;;;;;;;;;;;;;15.45;46.06;99952.28;5306775;27;1181;-51
2024/04/20 04:03:22;;;;;;;;;;;;;;;16.05;46.93;99952.81;5302240;27;1236;-50
2024/04/20 04:05:47;;;;;;;;;;;;;;;15.13;48.86;99951.25;5315127;27;1087;-51
2024/04/20 04:08:13;;;;;;;;;;;;;;;16.16;47.35;99955.41;5292494;27;1391;-54
2024/04/20 04:10:38;;;;;;;;;;;;;;;16.18;47.04;99958.78;5293254;27;1236;-52
2024/04/20 04:13:04;;;;;;;;;;;;;;;16.01;47.43;99950.44;5311775;26;2062;-49
2024/04/20 04:15:30;;;;;;;;;;;;;;;15.90;47.52;99953.94;5311888;27;1110;-50
2024/04/20 04:17:55;;;;;;;;;;;;;;;15.84;47.73;99961.56;5308797;27;1268;-49
2024/04/20 04:20:21;;;;;;;;;;;;;;;15.89;47.89;99964.66;5313368;27;1289;-54
2024/04/20 04:22:46;;;;;;;;;;;;;;;17.43;44.77;99963.25;5312652;27;1348;-51
2024/04/20 04:25:12;;;;;;;;;;;;;;;16.73;45.61;99960.34;5306649;27;2829;-46
2024/04/20 04:27:37;;;;;;;;;;;;;;;16.34;46.75;99957.47;5314592;27;1460;-47
2024/04/20 04:30:03;;;;;;;;;;;;;;;16.01;47.58;99961.03;5309420;27;1455;-51
2024/04/20 04:32:29;;;;;;;;;;;;;;;15.89;47.81;99956.72;5307241;27;1328;-48
2024/04/20 04:34:54;;;;;;;;;;;;;;;16.10;47.95;99959.41;5309794;27;1834;-50
2024/04/20 04:37:19;;;;;;;;;;;;;;;17.56;44.78;99950.53;5312795;27;1266;-51
2024/04/20 04:39:45;;;;;;;;;;;;;;;16.96;45.82;99954.84;5298942;27;1219;-50
2024/04/20 04:42:10;;;;;;;;;;;;;;;16.41;47.13;99950.69;5294948;27;1312;-52
2024/04/20 04:44:39;;;;;;;;;;;;;;;16.16;47.80;99958.06;5298340;27;1208;-51
2024/04/20 04:47:05;;;;;;;;;;;;;;;16.01;48.42;99953.09;5287486;27;1251;-51
2024/04/20 04:49:31;;;;;;;;;;;;;;;17.46;45.13;99947.88;5310063;27;1213;-52
2024/04/20 04:51:57;;;;;;;;;;;;;;;16.77;46.43;99943.16;5311032;27;1324;-53
2024/04/20 04:54:22;;;;;;;;;;;;;;;16.35;47.52;99936.09;5306427;27;2651;-49
2024/04/20 04:56:48;;;;;;;;;;;;;;;16.13;48.31;99942.41;5313525;27;1296;-54
2024/04/20 04:59:14;;;;;;;;;;;;;;;16.51;47.62;99943.63;5312210;27;1250;-53
2024/04/20 05:01:41;;;;;;;;;;;;;;;17.47;45.32;99928.28;5311897;27;1276;-46
2024/04/20 05:04:06;;;;;;;;;;;;;;;16.67;46.89;99926.34;5309776;27;1270;-51
2024/04/20 05:06:32;;;;;;;;;;;;;;;16.37;47.63;99926.22;5311051;27;1577;-52
2024/04/20 05:08:57;;;;;;;;;;;;;;;16.12;48.37;99920.34;5312186;27;1247;-50
2024/04/20 05:11:23;;;;;;;;;;;;;;;15.98;48.80;99926.78;5292106;27;1427;-51
2024/04/20 05:13:48;;;;;;;;;;;;;;;16.52;47.98;99925.84;5280073;27;1834;-49
2024/04/20 05:16:14;;;;;;;;;;;;;;;17.68;45.01;99923.81;5292727;27;1328;-52
2024/04/20 05:18:39;;;;;;;;;;;;;;;16.82;47.09;99916.19;5289809;27;1125;-49
2024/04/20 05:21:05;;;;;;;;;;;;;;;16.36;48.12;99913.91;5294475;27;1264;-48
2024/04/20 05:23:30;;;;;;;;;;;;;;;16.20;48.43;99916.19;5279999;27;1133;-49
2024/04/20 05:25:56;;;;;;;;;;;;;;;16.07;48.77;99911.06;5291971;27;3069;-50
2024/04/20 05:28:24;;;;;;;;;;;;;;;15.87;49.25;99913.56;5309924;27;1006;-51
2024/04/20 05:30:49;;;;;;;;;;;;;;;17.05;47.19;99900.03;5313844;27;1081;-49
2024/04/20 05:33:15;;;;;;;;;;;;;;;17.44;45.73;99886.00;5308828;27;1837;-50
2024/04/20 05:35:41;;;;;;;;;;;;;;;16.63;47.56;99880.63;5283176;27;1126;-49
2024/04/20 05:38:06;;;;;;;;;;;;;;;16.31;48.33;99899.34;5291852;27;1331;-49
2024/04/20 05:40:35;;;;;;;;;;;;;;;16.16;48.82;99902.34;5316846;27;1224;-49
2024/04/20 05:43:01;;;;;;;;;;;;;;;16.50;48.55;99887.97;5297558;27;1204;-50
2024/04/20 05:45:26;;;;;;;;;;;;;;;17.63;45.71;99893.13;5303487;27;1121;-48
2024/04/20 05:47:52;;;;;;;;;;;;;;;16.73;47.49;99893.13;5308117;27;1274;-51
2024/04/20 05:50:18;;;;;;;;;;;;;;;16.37;48.52;99893.50;5302717;27;1133;-51
2024/04/20 05:52:43;;;;;;;;;;;;;;;16.20;48.96;99893.13;5285956;27;1145;-46
2024/04/20 05:55:09;;;;;;;;;;;;;;;16.44;49.00;99892.00;5286224;27;2705;-50
2024/04/20 05:57:34;;;;;;;;;;;;;;;17.62;45.46;99887.97;5290881;27;1209;-47
2024/04/20 06:00:00;;;;;;;;;;;;;;;16.75;47.45;99885.81;5296958;27;1213;-48
2024/04/20 06:02:27;;;;;;;;;;;;;;;16.35;48.56;99887.50;5313396;27;1129;-51
2024/04/20 06:04:55;;;;;;;;;;;;;;;16.19;49.08;99880.84;5314971;27;1435;-49
2024/04/20 06:07:21;;;;;;;;;;;;;;;16.03;49.60;99887.44;5308463;27;1137;-48
2024/04/20 06:09:46;;;;;;;;;;;;;;;16.34;49.20;99897.28;5299082;27;1157;-51
2024/04/20 06:12:12;;;;;;;;;;;;;;;17.78;45.40;99894.53;5284744;27;1498;-52
2024/04/20 06:14:37;;;;;;;;;;;;;;;16.97;47.47;99903.38;5305387;27;1870;-46
2024/04/20 06:17:03;;;;;;;;;;;;;;;16.51;48.45;99898.47;5297381;27;1233;-48
2024/04/20 06:19:29;;;;;;;;;;;;;;;16.24;49.14;99897.22;5294232;27;1117;-50
2024/04/20 06:21:54;;;;;;;;;;;;;;;16.10;49.31;99905.53;5293399;27;1217;-51
2024/04/20 06:24:20;;;;;;;;;;;;;;;15.92;50.00;99908.72;5296912;27;2831;-48
2024/04/20 06:26:45;;;;;;;;;;;;;;;16.81;48.28;99905.72;5305242;27;1185;-46
2024/04/20 06:29:11;;;;;;;;;;;;;;;17.48;46.41;99899.88;5302575;27;1161;-48
2024/04/20 06:31:37;;;;;;;;;;;;;;;16.72;48.23;99908.19;5284607;27;1493;-48
2024/04/20 06:34:02;;;;;;;;;;;;;;;16.37;49.00;99907.63;5302979;27;1834;-49
2024/04/20 06:36:28;;;;;;;;;;;;;;;16.11;49.62;99910.69;5284769;27;1200;-48
2024/04/20 06:38:53;;;;;;;;;;;;;;;16.00;50.06;99914.25;5302338;27;1223;-49
2024/04/20 06:41:19;;;;;;;;;;;;;;;17.01;47.92;99907.47;5315079;27;1157;-51
2024/04/20 06:43:44;;;;;;;;;;;;;;;17.53;46.12;99920.72;5309492;27;1094;-49
2024/04/20 06:46:10;;;;;;;;;;;;;;;16.72;48.30;99915.31;5307055;27;1269;-49
2024/04/20 06:48:36;;;;;;;;;;;;;;;16.38;49.08;99909.28;5302256;27;1153;-52
2024/04/20 06:51:02;;;;;;;;;;;;;;;16.15;49.85;99908.59;5263879;27;1611;-48
2024/04/20 06:53:27;;;;;;;;;;;;;;;16.11;50.07;99905.41;5316087;27;1866;-49
2024/04/20 06:55:55;;;;;;;;;;;;;;;17.60;46.44;99903.25;5283961;27;2626;-52
2024/04/20 06:58:21;;;;;;;;;;;;;;;16.90;48.06;99902.25;5282269;27;1274;-48
2024/04/20 07:00:46;;;;;;;;;;;;;;;16.43;49.06;99894.81;5290227;27;1144;-52
2024/04/20 07:03:12;;;;;;;;;;;;;;;16.19;49.86;99896.78;5303845;27;1211;-51
2024/04/20 07:05:37;;;;;;;;;;;;;;;16.07;49.75;99892.50;5284291;27;1289;-46
2024/04/20 07:08:03;;;;;;;;;;;;;;;16.81;48.73;99887.97;5308899;27;1532;-49
2024/04/20 07:10:29;;;;;;;;;;;;;;;17.76;46.35;99886.72;5284036;27;1334;-51
2024/04/20 07:12:55;;;;;;;;;;;;;;;16.79;48.33;99889.91;5251815;27;1331;-51
2024/04/20 07:15:20;;;;;;;;;;;;;;;16.45;49.42;99883.06;5304416;27;1876;-46
2024/04/20 07:17:47;;;;;;;;;;;;;;;16.23;49.68;99884.91;5304177;27;1260;-49
2024/04/20 07:20:13;;;;;;;;;;;;;;;16.03;49.96;99868.06;5302447;27;1077;-51
2024/04/20 07:22:38;;;;;;;;;;;;;;;16.93;48.73;99880.75;5300282;27;1138;-52
2024/04/20 07:25:04;;;;;;;;;;;;;;;17.36;47.19;99892.03;5297527;27;2687;-51
2024/04/20 07:27:29;;;;;;;;;;;;;;;16.61;48.93;99893.22;5300563;27;1270;-51
2024/04/20 07:29:55;;;;;;;;;;;;;;;16.30;49.98;99905.63;5307944;27;1280;-55
2024/04/20 07:32:20;;;;;;;;;;;;;;;16.10;50.37;99903.69;5310527;27;1162;-50
2024/04/20 07:34:46;;;;;;;;;;;;;;;16.21;50.18;99902.78;5285149;27;1856;-51
2024/04/20 07:37:12;;;;;;;;;;;;;;;17.67;46.92;99908.81;5281655;27;1265;-52
2024/04/20 07:39:37;;;;;;;;;;;;;;;16.95;48.33;99904.50;5289161;27;1149;-50
2024/04/20 07:42:03;;;;;;;;;;;;;;;16.38;49.74;99901.34;5306998;27;1120;-51
2024/04/20 07:44:28;;;;;;;;;;;;;;;16.21;50.32;99896.63;5285453;27;1170;-51
2024/04/20 07:46:59;;;;;;;;;;;;;;;16.20;50.38;99902.94;5314978;27;1390;-52
2024/04/20 07:49:24;;;;;;;;;;;;;;;17.71;46.98;99908.41;5284722;27;1280;-49
2024/04/20 07:51:50;;;;;;;;;;;;;;;16.94;48.27;99916.09;5293102;27;1102;-50
2024/04/20 07:54:19;;;;;;;;;;;;;;;16.49;49.41;99919.00;5291627;27;2933;-48
2024/04/20 07:56:44;;;;;;;;;;;;;;;16.23;50.00;99907.97;5300641;27;1057;-52
2024/04/20 07:59:10;;;;;;;;;;;;;;;16.09;50.29;99911.78;5282192;27;1081;-50
2024/04/20 08:01:35;;;;;;;;;;;;;;;17.38;47.88;99913.97;5302819;27;1180;-51
2024/04/20 08:04:01;;;;;;;;;;;;;;;17.01;48.54;99906.63;5289503;27;1299;-51
2024/04/20 08:06:26;;;;;;;;;;;;;;;16.44;49.84;99910.59;5293693;27;1133;-48
2024/04/20 08:08:52;;;;;;;;;;;;;;;16.23;50.23;99906.13;5305517;27;1148;-50
2024/04/20 08:11:17;;;;;;;;;;;;;;;16.09;50.48;99898.50;5302956;27;1219;-52
2024/04/20 08:13:43;;;;;;;;;;;;;;;17.46;47.69;99909.81;5303456;27;1882;-49
2024/04/20 08:16:08;;;;;;;;;;;;;;;16.99;48.13;99908.56;5293312;27;1206;-49
2024/04/20 08:18:34;;;;;;;;;;;;;;;16.49;49.60;99908.38;5314555;27;1239;-47
2024/04/20 08:21:00;;;;;;;;;;;;;;;16.31;50.10;99913.47;5299214;27;1185;-48
2024/04/20 08:23:26;;;;;;;;;;;;;;;16.08;50.43;99912.75;5292119;27;1200;-48
2024/04/20 08:25:51;;;;;;;;;;;;;;;16.47;50.29;99915.63;5296814;27;2814;-49
2024/04/20 08:28:18;;;;;;;;;;;;;;;17.68;46.62;99903.38;5309490;27;1234;-48
2024/04/20 08:30:43;;;;;;;;;;;;;;;16.77;49.09;99898.00;5295816;27;1402;-47
2024/04/20 08:33:09;;;;;;;;;;;;;;;16.47;49.66;99891.75;5290052;27;1872;-49
2024/04/20 08:35:34;;;;;;;;;;;;;;;16.29;50.15;99902.13;5297291;27;1133;-48
2024/04/20 08:38:00;;;;;;;;;;;;;;;16.02;50.70;99901.69;5286653;27;1150;-50
2024/04/20 08:40:25;;;;;;;;;;;;;;;15.93;50.81;99901.59;5297482;27;1113;-46
2024/04/20 08:42:52;;;;;;;;;;;;;;;17.32;48.33;99900.41;5299207;27;1269;-49
2024/04/20 08:45:19;;;;;;;;;;;;;;;17.07;48.58;99898.09;5311939;27;1390;-47
2024/04/20 08:47:45;;;;;;;;;;;;;;;16.50;49.67;99901.25;5276569;27;1301;-50
2024/04/20 08:50:10;;;;;;;;;;;;;;;16.28;50.23;99906.59;5267413;27;1331;-47
2024/04/20 08:52:36;;;;;;;;;;;;;;;16.12;50.57;99908.88;5273680;27;1281;-49
2024/04/20 08:55:01;;;;;;;;;;;;;;;17.13;49.01;99918.00;5250100;27;2666;-51
2024/04/20 08:57:27;;;;;;;;;;;;;;;17.29;48.10;99928.09;5250824;27;1119;-50
2024/04/20 08:59:52;;;;;;;;;;;;;;;16.61;49.61;99926.88;5283511;27;1134;-48
2024/04/20 09:02:20;;;;;;;;;;;;;;;16.28;50.21;99921.69;5284079;27;1259;-48
2024/04/20 09:04:46;;;;;;;;;;;;;;;16.18;50.40;99924.28;5274133;27;1262;-46
2024/04/20 09:07:11;;;;;;;;;;;;;;;16.14;50.65;99915.75;5296605;27;1273;-51
2024/04/20 09:09:37;;;;;;;;;;;;;;;17.69;47.44;99912.19;5294054;27;1328;-48
2024/04/20 09:12:03;;;;;;;;;;;;;;;17.01;48.65;99910.13;5301641;27;1380;-51
2024/04/20 09:14:28;;;;;;;;;;;;;;;16.50;49.98;99910.06;5305308;27;1873;-48
2024/04/20 09:16:54;;;;;;;;;;;;;;;16.23;50.42;99911.44;5298120;27;1281;-49
2024/04/20 09:19:20;;;;;;;;;;;;;;;16.07;50.61;99900.44;5290120;27;1340;-49
2024/04/20 09:21:45;;;;;;;;;;;;;;;16.53;50.16;99893.84;5292880;27;1359;-47
2024/04/20 09:24:13;;;;;;;;;;;;;;;17.77;47.26;99901.69;5300508;27;2596;-48
2024/04/20 09:26:38;;;;;;;;;;;;;;;16.87;49.17;99889.22;5293980;27;1363;-48
2024/04/20 09:29:04;;;;;;;;;;;;;;;16.40;50.14;99895.88;5299154;27;1316;-49
2024/04/20 09:31:32;;;;;;;;;;;;;;;16.19;50.60;99883.50;5309180;27;1384;-47
2024/04/20 09:33:58;;;;;;;;;;;;;;;16.03;50.94;99874.19;5298660;27;1834;-50
2024/04/20 09:36:23;;;;;;;;;;;;;;;17.48;48.25;99890.06;5306210;27;1321;-47
2024/04/20 09:38:49;;;;;;;;;;;;;;;17.11;48.47;99878.28;5300813;27;1260;-50
2024/04/20 09:41:15;;;;;;;;;;;;;;;16.52;49.85;99881.56;5258044;27;1280;-53
2024/04/20 09:43:41;;;;;;;;;;;;;;;16.30;50.46;99871.13;5288376;27;1172;-50
2024/04/20 09:46:07;;;;;;;;;;;;;;;16.13;50.68;99886.69;5316901;27;1117;-47
2024/04/20 09:48:32;;;;;;;;;;;;;;;15.95;51.02;99887.22;5301237;27;1135;-50
2024/04/20 09:51:04;;;;;;;;;;;;;;;17.27;48.63;99881.38;5257200;27;1180;-47
2024/04/20 09:53:33;;;;;;;;;;;;;;;17.28;48.14;99886.56;5300423;27;1858;-50
2024/04/20 09:56:01;;;;;;;;;;;;;;;16.60;49.91;99888.03;5291347;27;2797;-49
2024/04/20 09:58:27;;;;;;;;;;;;;;;16.32;50.44;99883.28;5268876;27;1335;-52
2024/04/20 10:00:52;;;;;;;;;;;;;;;16.11;50.72;99870.06;5275490;27;1299;-48
2024/04/20 10:03:18;;;;;;;;;;;;;;;17.35;48.33;99874.38;5301398;27;1212;-49
2024/04/20 10:05:44;;;;;;;;;;;;;;;17.01;48.66;99864.09;5282394;27;1416;-49
2024/04/20 10:08:09;;;;;;;;;;;;;;;16.48;50.34;99864.22;5277896;27;1225;-45
2024/04/20 10:10:37;;;;;;;;;;;;;;;16.17;50.51;99858.91;5316011;27;1276;-46
2024/04/20 10:13:03;;;;;;;;;;;;;;;16.53;50.48;99866.50;5316117;27;1845;-46
2024/04/20 10:15:29;;;;;;;;;;;;;;;17.68;47.45;99855.50;5293235;27;1165;-48
2024/04/20 10:17:54;;;;;;;;;;;;;;;16.79;49.47;99851.88;5298006;27;1571;-52
2024/04/20 10:20:29;;;;;;;;;;;;;;;16.50;50.33;99849.00;5283882;27;1299;-45
2024/04/20 10:22:55;;;;;;;;;;;;;;;16.21;50.61;99838.25;5305025;27;1188;-47
2024/04/20 10:25:20;;;;;;;;;;;;;;;16.02;51.10;99827.41;5305081;27;2694;-51
2024/04/20 10:27:48;;;;;;;;;;;;;;;17.52;48.03;99818.00;5294276;27;1268;-48
2024/04/20 10:30:21;;;;;;;;;;;;;;;17.10;48.69;99812.00;5293891;27;1125;-49
2024/04/20 10:32:46;;;;;;;;;;;;;;;16.60;49.98;99814.50;5301501;27;1548;-50
2024/04/20 10:35:16;;;;;;;;;;;;;;;16.30;50.61;99810.09;5303441;27;1856;-46
2024/04/20 10:37:42;;;;;;;;;;;;;;;16.12;50.72;99798.28;5305000;27;1276;-48
2024/04/20 10:40:11;;;;;;;;;;;;;;;16.67;50.38;99804.19;5282582;27;1106;-49
2024/04/20 10:42:36;;;;;;;;;;;;;;;17.70;47.64;99792.34;5304716;27;1347;-46
2024/04/20 10:45:06;;;;;;;;;;;;;;;16.80;49.59;99789.84;5284424;27;1132;-48
2024/04/20 10:47:35;;;;;;;;;;;;;;;16.38;50.49;99800.47;5309681;27;1165;-48
2024/04/20 10:50:01;;;;;;;;;;;;;;;16.17;50.99;99792.56;5269171;27;1260;-45
2024/04/20 10:52:27;;;;;;;;;;;;;;;16.02;51.18;99800.03;5287940;27;1274;-46
2024/04/20 10:54:53;;;;;;;;;;;;;;;17.36;48.51;99793.66;5314434;27;2803;-45
2024/04/20 10:57:19;;;;;;;;;;;;;;;17.15;48.61;99793.78;5300739;27;1201;-48
2024/04/20 10:59:45;;;;;;;;;;;;;;;16.53;50.18;99789.50;5298282;27;1339;-43
2024/04/20 11:02:14;;;;;;;;;;;;;;;16.23;51.15;99768.16;5282189;27;1342;-48
2024/04/20 11:04:40;;;;;;;;;;;;;;;16.13;51.03;99775.25;5298436;27;1235;-48
2024/04/20 11:07:05;;;;;;;;;;;;;;;15.99;51.26;99773.78;5297912;27;1275;-47
2024/04/20 11:09:31;;;;;;;;;;;;;;;16.72;50.32;99769.25;5291677;27;1264;-47
2024/04/20 11:12:00;;;;;;;;;;;;;;;17.85;47.50;99763.47;5299305;27;1549;-47
2024/04/20 11:14:29;;;;;;;;;;;;;;;16.83;49.65;99739.09;5304135;27;1869;-47
2024/04/20 11:16:57;;;;;;;;;;;;;;;16.48;50.53;99744.75;5298980;27;1423;-48
2024/04/20 11:19:22;;;;;;;;;;;;;;;16.23;50.92;99738.13;5292484;27;1285;-47
2024/04/20 11:21:48;;;;;;;;;;;;;;;16.76;50.03;99741.47;5310658;27;1375;-48
2024/04/20 11:24:13;;;;;;;;;;;;;;;17.54;47.92;99741.56;5273404;27;2825;-47
2024/04/20 11:26:39;;;;;;;;;;;;;;;16.70;49.90;99750.81;5285308;27;1130;-47
2024/04/20 11:29:05;;;;;;;;;;;;;;;16.34;50.85;99761.91;5315109;27;1243;-46
2024/04/20 11:31:30;;;;;;;;;;;;;;;16.18;51.26;99749.16;5285398;27;1217;-48
2024/04/20 11:33:56;;;;;;;;;;;;;;;16.05;51.15;99754.66;5289949;27;1821;-51
2024/04/20 11:36:23;;;;;;;;;;;;;;;16.34;51.18;99761.91;5288649;27;1232;-47
2024/04/20 11:38:48;;;;;;;;;;;;;;;17.73;47.95;99760.13;5315727;27;1240;-49
2024/04/20 11:41:24;;;;;;;;;;;;;;;16.87;49.76;99775.84;5308456;27;1231;-48
2024/04/20 11:43:50;;;;;;;;;;;;;;;16.44;50.66;99769.06;5281399;27;1228;-51
2024/04/20 11:46:16;;;;;;;;;;;;;;;16.22;50.88;99779.75;5299492;27;1243;-49
2024/04/20 11:48:42;;;;;;;;;;;;;;;16.60;50.80;99790.63;5301668;27;1375;-49
2024/04/20 11:51:25;;;;;;;;;;;;;;;17.66;48.04;99777.66;5291770;27;1406;-49
2024/04/20 11:56:41;;;;;;;;;;;;;;;16.35;50.79;99779.50;5301081;27;1303;-49
2024/04/20 11:59:10;;;;;;;;;;;;;;;16.20;51.22;99779.03;5291848;27;1320;-48
2024/04/20 12:01:36;;;;;;;;;;;;;;;16.45;51.07;99784.03;5295120;27;1402;-47
2024/04/20 12:04:01;;;;;;;;;;;;;;;17.76;47.67;99769.66;5309290;27;1333;-49
2024/04/20 12:06:27;;;;;;;;;;;;;;;16.88;49.74;99758.09;5290984;27;1336;-48
2024/04/20 12:08:52;;;;;;;;;;;;;;;16.45;50.42;99762.78;5287916;27;1227;-51
2024/04/20 12:11:18;;;;;;;;;;;;;;;16.20;51.11;99757.81;5291315;27;1270;-47
2024/04/20 12:13:45;;;;;;;;;;;;;;;16.02;51.12;99750.50;5292777;27;1831;-47
2024/04/20 12:16:12;;;;;;;;;;;;;;;16.13;51.62;99754.03;5314825;27;1270;-48
2024/04/20 12:18:38;;;;;;;;;;;;;;;17.60;48.33;99767.59;5302998;27;1212;-47
2024/04/20 12:21:03;;;;;;;;;;;;;;;16.95;49.67;99771.69;5263121;27;1147;-49
2024/04/20 12:23:29;;;;;;;;;;;;;;;16.42;50.71;99782.47;5291613;27;1193;-49
2024/04/20 12:25:54;;;;;;;;;;;;;;;16.20;51.08;99783.53;5304418;27;2949;-52
2024/04/20 12:28:20;;;;;;;;;;;;;;;16.07;51.27;99796.97;5314464;27;1176;-49
2024/04/20 12:30:45;;;;;;;;;;;;;;;16.45;51.14;99806.09;5295300;27;1235;-48
2024/04/20 12:33:12;;;;;;;;;;;;;;;17.76;47.80;99798.91;5281038;27;1876;-49
2024/04/20 12:35:38;;;;;;;;;;;;;;;16.87;49.66;99801.56;5280785;27;1219;-51
2024/04/20 12:38:04;;;;;;;;;;;;;;;16.47;50.70;99803.28;5303274;27;1189;-49
2024/04/20 12:40:29;;;;;;;;;;;;;;;16.19;51.15;99798.59;5301824;27;1213;-49
2024/04/20 12:42:55;;;;;;;;;;;;;;;16.05;51.47;99799.78;5286203;27;1234;-46
2024/04/20 12:45:22;;;;;;;;;;;;;;;17.54;48.18;99803.56;5303312;27;1295;-44
2024/04/20 12:47:49;;;;;;;;;;;;;;;16.87;49.73;99810.38;5257081;27;1137;-48
2024/04/20 12:50:18;;;;;;;;;;;;;;;16.43;50.51;99825.78;5284807;27;1240;-50